Data for 11/02/2013

Time Sea-Level Adjusted Pressure Absolute Pressure Temperature Relative Humidity Dew Point   
(mb) (inHg) (mb) (inHg) (C) (F) (%) (C) (F)
00:05 1020 30.12 849 25.07 0.7 33.2 65 -5.1 22.9
00:10 1020 30.12 849 25.07 0.7 33.3 65 -5 23
00:15 1020 30.12 849 25.07 0.8 33.5 65 -5.1 22.9
00:20 1020 30.12 849 25.07 1 33.8 64 -5 22.9
00:25 1020 30.12 849 25.07 1.5 34.6 62 -5.1 22.7
00:30 1020 30.12 849 25.07 1.7 35 62 -4.9 23.2
00:35 1020 30.12 849 25.07 1.2 34.1 64 -4.9 23.1
00:40 1020 30.12 849 25.07 1 33.7 64 -5 22.9
00:45 1020 30.12 849 25.07 0.9 33.6 65 -5 22.9
00:50 1020 30.12 849 25.07 1 33.7 64 -5.1 22.9
00:55 1020 30.12 849 25.07 0.9 33.6 65 -5 23
01:00 1020 30.12 849 25.07 1 33.8 63 -5.3 22.4
01:05 1020 30.12 849 25.07 1.4 34.5 61 -5.3 22.4
01:10 1020 30.12 849 25.07 1.4 34.5 61 -5.3 22.5
01:15 1020 30.12 849 25.07 1.2 34.2 63 -5.1 22.8
01:20 1020 30.12 849 25.07 1 33.8 63 -5.3 22.4
01:25 1020 30.12 849 25.07 0.9 33.6 63 -5.3 22.4
01:30 1020 30.12 849 25.07 1 33.7 62 -5.5 22
01:35 1019 30.09 849 25.07 1.6 34.8 60 -5.4 22.2
01:40 1019 30.09 849 25.07 1.8 35.2 60 -5.1 22.8
01:45 1019 30.09 849 25.07 1.6 34.9 61 -5.2 22.6
01:50 1019 30.09 848 25.04 1.3 34.3 63 -5 23
01:55 1019 30.09 848 25.04 1.2 34.2 62 -5.3 22.4
02:00 1019 30.09 848 25.04 1.3 34.4 62 -5.2 22.7
02:05 1019 30.09 848 25.04 1.2 34.2 64 -4.8 23.4
02:10 1019 30.09 848 25.04 0.6 33 66 -5 23
02:15 1019 30.09 848 25.04 0.8 33.5 64 -5.2 22.6
02:20 1019 30.09 848 25.04 1.1 33.9 64 -4.9 23.1
02:25 1019 30.09 848 25.04 0.9 33.6 66 -4.8 23.3
02:30 1018 30.06 848 25.04 0.7 33.3 65 -5.1 22.8
02:35 1018 30.06 847 25.01 0.9 33.6 65 -4.9 23.2
02:40 1018 30.06 847 25.01 0.8 33.5 65 -5 23
02:45 1018 30.06 847 25.01 0.9 33.7 65 -5 23.1
02:50 1018 30.06 847 25.01 1 33.8 65 -4.9 23.1
02:55 1018 30.06 847 25.01 1 33.9 64 -5 23
03:00 1018 30.06 847 25.01 1.2 34.2 62 -5.2 22.6
03:05 1017 30.03 847 25.01 1.6 35 60 -5.2 22.6
03:10 1017 30.03 847 25.01 1.9 35.5 59 -5.2 22.6
03:15 1017 30.03 846 24.98 2 35.6 58 -5.3 22.4
03:20 1017 30.03 846 24.98 2.2 36 58 -5.1 22.9
03:25 1017 30.03 846 24.98 2.1 35.7 59 -5.2 22.7
03:30 1017 30.03 846 24.98 2 35.6 58 -5.3 22.5
03:35 1017 30.03 846 24.98 2 35.7 60 -4.9 23.2
03:40 1017 30.03 846 24.98 1.8 35.3 60 -5.1 22.8
03:45 1017 30.03 846 24.98 1.9 35.4 59 -5.2 22.6
03:50 1017 30.03 846 24.98 2.2 35.9 59 -5.1 22.8
03:55 1017 30.03 846 24.98 2 35.6 61 -4.8 23.3
04:00 1017 30.03 846 24.98 1.6 34.8 64 -4.5 23.9
04:05 1017 30.03 846 24.98 1.1 34 62 -5.4 22.2
04:10 1017 30.03 846 24.98 1.3 34.4 62 -5.1 22.8
04:15 1017 30.03 846 24.98 1.2 34.2 63 -5.1 22.7
04:20 1017 30.03 846 24.98 1.3 34.3 62 -5.2 22.6
04:25 1017 30.03 846 24.98 1.4 34.5 61 -5.3 22.5
04:30 1017 30.03 846 24.98 1.6 34.9 60 -5.3 22.5
04:35 1017 30.03 846 24.98 1.7 35.1 60 -5.2 22.7
04:40 1017 30.03 846 24.98 1.7 35.1 60 -5.2 22.7
04:45 1017 30.03 846 24.98 1.6 35 61 -5 23
04:50 1016 30 846 24.98 1.5 34.6 62 -5.1 22.9
04:55 1016 30 846 24.98 1.5 34.7 62 -5.1 22.8
05:00 1016 30 846 24.98 1.5 34.6 63 -4.9 23.3
05:05 1016 30 846 24.98 1.4 34.5 63 -4.9 23.2
05:10 1016 30 845 24.95 1.3 34.3 63 -5 23
05:15 1016 30 845 24.95 1.4 34.6 63 -4.9 23.2
05:20 1016 30 845 24.95 1.5 34.7 63 -4.8 23.3
05:25 1016 30 845 24.95 1.3 34.4 64 -4.8 23.4
05:30 1016 30 845 24.95 1.5 34.6 63 -4.9 23.2
05:35 1016 30 845 24.95 1.6 34.8 62 -5 23
05:40 1016 30 845 24.95 1.7 35.1 62 -4.9 23.2
05:45 1016 30 845 24.95 1.8 35.2 61 -5 23.1
05:50 1016 30 845 24.95 1.7 35 61 -5.1 22.9
05:55 1016 30 845 24.95 1.7 35.1 63 -4.6 23.7
06:00 1016 30 845 24.95 1.7 35.1 63 -4.7 23.6
06:05 1016 30 845 24.95 1.5 34.6 64 -4.6 23.7
06:10 1016 30 845 24.95 1.2 34.2 64 -4.9 23.3
06:15 1015 29.97 845 24.95 1.3 34.3 64 -4.8 23.4
06:20 1015 29.97 845 24.95 1.1 33.9 65 -4.8 23.3
06:25 1015 29.97 844 24.92 0.8 33.4 69 -4.2 24.4
06:30 1015 29.97 844 24.92 0.4 32.7 67 -5 22.9
06:35 1015 29.97 844 24.92 0.9 33.6 66 -4.7 23.6
06:40 1015 29.97 844 24.92 0.7 33.2 67 -4.8 23.4
06:45 1015 29.97 844 24.92 0.7 33.3 66 -4.9 23.2
06:50 1015 29.97 844 24.92 1 33.7 64 -5 23
06:55 1015 29.97 844 24.92 0.9 33.6 66 -4.8 23.3
07:00 1015 29.97 844 24.92 0.6 33 68 -4.8 23.4
07:05 1015 29.97 844 24.92 0.2 32.3 68 -5.1 22.8
07:10 1015 29.97 844 24.92 0.3 32.6 62 -6.1 21.1
07:15 1015 29.97 844 24.92 0.8 33.4 65 -5.1 22.9
07:20 1015 29.97 844 24.92 0.2 32.3 68 -5 23
07:25 1015 29.97 844 24.92 0 32 67 -5.3 22.4
07:30 1015 29.97 844 24.92 0.2 32.3 66 -5.4 22.2
07:35 1015 29.97 844 24.92 0.7 33.3 63 -5.5 22.2
07:40 1014 29.94 844 24.92 1.4 34.5 63 -5 23
07:45 1014 29.94 844 24.92 1.1 34.1 62 -5.3 22.4
07:50 1014 29.94 844 24.92 1.7 35.1 59 -5.3 22.4
07:55 1014 29.94 844 24.92 2 35.7 59 -5.2 22.7
08:00 1014 29.94 844 24.92 2.1 35.8 56 -5.7 21.7
08:05 1014 29.94 843 24.89 2.4 36.3 55 -5.7 21.8
08:10 1014 29.94 843 24.89 2.6 36.6 57 -5.1 22.8
08:15 1014 29.94 843 24.89 2.7 36.9 57 -5 23
08:20 1014 29.94 843 24.89 2.9 37.1 58 -4.7 23.5
08:25 1014 29.94 843 24.89 2.6 36.7 58 -4.7 23.5
08:30 1014 29.94 843 24.89 2.4 36.3 58 -5 23
08:35 1014 29.94 843 24.89 2.2 35.9 59 -5 22.9
08:40 1014 29.94 843 24.89 2.6 36.7 57 -5.2 22.7
08:45 1014 29.94 843 24.89 2.9 37.1 56 -5 23.1
08:50 1014 29.94 843 24.89 3.3 37.9 55 -4.9 23.2
08:55 1014 29.94 843 24.89 3.9 39 54 -4.7 23.6
09:00 1014 29.94 843 24.89 4.4 39.8 52 -4.7 23.5
09:05 1013 29.91 843 24.89 4.7 40.5 50 -4.9 23.3
09:10 1013 29.91 842 24.86 5.4 41.8 48 -4.7 23.6
09:15 1013 29.91 842 24.86 6.1 43 46 -4.7 23.5
09:20 1013 29.91 842 24.86 6.5 43.7 46 -4.4 24.1
09:25 1013 29.91 842 24.86 7 44.6 44 -4.3 24.3
09:30 1013 29.91 842 24.86 7.8 46 42 -4.4 24.1
09:35 1013 29.91 842 24.86 8.4 47.2 40 -4.4 24.1
09:40 1013 29.91 842 24.86 9.2 48.5 39 -4.1 24.7
09:45 1013 29.91 842 24.86 9.9 49.8 37 -4 24.8
09:50 1013 29.91 842 24.86 10.6 51 36 -4 24.9
09:55 1012 29.88 842 24.86 10.4 50.6 37 -3.8 25.2
10:00 1012 29.88 841 24.83 10.1 50.1 37 -3.9 25
10:05 1012 29.88 841 24.83 10.2 50.4 36 -4 24.7
10:10 1012 29.88 841 24.83 10.3 50.5 34 -4.9 23.2
10:15 1012 29.88 841 24.83 10.7 51.2 32 -5.4 22.3
10:20 1012 29.88 841 24.83 10.7 51.2 39 -2.8 27
10:25 1012 29.88 841 24.83 9.9 49.9 36 -4.3 24.3
10:30 1012 29.88 841 24.83 10.3 50.5 38 -3.5 25.6
10:35 1012 29.88 841 24.83 10.2 50.3 37 -3.8 25.2
10:40 1011 29.85 841 24.83 10.8 51.5 32 -5.1 22.8
10:45 1011 29.85 840 24.81 11.9 53.5 30 -5.1 22.9
10:50 1011 29.85 840 24.81 11.5 52.8 31 -5.1 22.8
10:55 1011 29.85 840 24.81 11.1 51.9 35 -3.6 25.4
11:00 1011 29.85 840 24.81 11.1 52 32 -4.8 23.3
11:05 1011 29.85 840 24.81 10.8 51.4 31 -5.5 22.1
11:10 1011 29.85 840 24.81 10.6 51 32 -5.4 22.2
11:15 1011 29.85 840 24.81 10.8 51.4 32 -5.4 22.3
11:20 1011 29.85 840 24.81 11.4 52.4 30 -5.5 22.1
11:25 1011 29.85 840 24.81 11.9 53.5 29 -5.3 22.4
11:30 1010 29.83 840 24.81 12 53.6 30 -4.9 23.1
11:35 1010 29.83 840 24.81 12.2 53.9 29 -5.2 22.7
11:40 1010 29.83 839 24.78 12 53.6 29 -5.4 22.4
11:45 1010 29.83 839 24.78 11.8 53.3 30 -5.1 22.8
11:50 1010 29.83 839 24.78 11.5 52.6 31 -5.2 22.6
11:55 1010 29.83 839 24.78 11.3 52.4 30 -5.6 22
12:00 1010 29.83 839 24.78 11.6 53 30 -5.4 22.2
12:05 1010 29.83 839 24.78 11.8 53.2 29 -5.5 22.2
12:10 1009 29.8 839 24.78 12.1 53.8 28 -5.6 22
12:15 1009 29.8 838 24.75 12.3 54.2 29 -5.1 22.8
12:20 1009 29.8 838 24.75 12.4 54.2 29 -5.2 22.6
12:25 1009 29.8 838 24.75 12.6 54.6 28 -5.4 22.4
12:30 1009 29.8 838 24.75 12.8 55.1 29 -4.9 23.3
12:35 1009 29.8 838 24.75 13 55.5 28 -4.8 23.4
12:40 1009 29.8 838 24.75 13.1 55.5 27 -5.3 22.5
12:45 1008 29.77 838 24.75 13 55.4 27 -5.5 22.1
12:50 1008 29.77 837 24.72 12.8 55.1 27 -5.5 22.2
12:55 1008 29.77 837 24.72 12.9 55.3 27 -5.5 22.1
13:00 1008 29.77 837 24.72 13.1 55.6 26 -5.7 21.8
13:05 1008 29.77 837 24.72 13.3 56 26 -5.5 22.1
13:10 1008 29.77 837 24.72 13.5 56.2 26 -5.6 21.9
13:15 1008 29.77 837 24.72 13.6 56.4 26 -5.6 22
13:20 1008 29.77 837 24.72 13.6 56.4 26 -5.3 22.4
13:25 1008 29.77 837 24.72 13.4 56.2 26 -5.8 21.5
13:30 1008 29.77 837 24.72 13.5 56.3 26 -5.8 21.6
13:35 1007 29.74 837 24.72 13.8 56.8 26 -5.6 22
13:40 1007 29.74 836 24.69 13.6 56.5 27 -5 23
13:45 1007 29.74 836 24.69 13.5 56.4 27 -5.1 22.8
13:50 1007 29.74 836 24.69 13.6 56.4 28 -4.5 23.8
13:55 1007 29.74 836 24.69 13.5 56.3 29 -4.1 24.7
14:00 1007 29.74 836 24.69 13.4 56 31 -3.5 25.6
14:05 1007 29.74 836 24.69 13.4 56.1 32 -2.9 26.9
14:10 1007 29.74 836 24.69 13.2 55.7 32 -2.9 26.8
14:15 1007 29.74 836 24.69 13.2 55.8 32 -2.9 26.8
14:20 1007 29.74 836 24.69 13.2 55.8 31 -3.5 25.7
14:25 1007 29.74 836 24.69 13 55.4 32 -3.3 26.1
14:30 1007 29.74 836 24.69 12.8 55.1 32 -3.4 26
14:35 1007 29.74 836 24.69 12.9 55.1 32 -3.5 25.7
14:40 1007 29.74 836 24.69 12.9 55.2 30 -4.3 24.2
14:45 1007 29.74 836 24.69 13.1 55.6 30 -3.8 25.1
14:50 1006 29.71 836 24.69 13 55.4 31 -3.8 25.1
14:55 1006 29.71 836 24.69 12.6 54.6 32 -3.7 25.4
15:00 1006 29.71 836 24.69 12.7 54.9 31 -4 24.8
15:05 1006 29.71 836 24.69 12.8 55.1 31 -3.9 25.1
15:10 1006 29.71 836 24.69 12.8 55 31 -4.1 24.7
15:15 1006 29.71 836 24.69 12.8 55 31 -3.9 24.9
15:20 1006 29.71 836 24.69 12.8 55 30 -4.4 24.1
15:25 1006 29.71 836 24.69 12.8 55.1 29 -4.7 23.5
15:30 1006 29.71 836 24.69 13.1 55.5 27 -5.3 22.5
15:35 1006 29.71 836 24.69 13.6 56.5 28 -4.4 24.1
15:40 1006 29.71 836 24.69 13.5 56.3 26 -5.8 21.5
15:45 1006 29.71 836 24.69 13.5 56.4 25 -6.1 21.1
15:50 1006 29.71 835 24.66 13.5 56.4 25 -6.1 21.1
15:55 1006 29.71 835 24.66 13.5 56.3 26 -5.7 21.8
16:00 1006 29.71 835 24.66 13.4 56.1 25 -6 21.2
16:05 1006 29.71 835 24.66 13.3 55.9 26 -5.8 21.6
16:10 1006 29.71 835 24.66 13 55.5 27 -5.5 22
16:15 1006 29.71 835 24.66 13 55.3 26 -5.9 21.5
16:20 1006 29.71 835 24.66 12.8 55 27 -5.6 22
16:25 1006 29.71 835 24.66 12.6 54.7 28 -5.5 22.1
16:30 1006 29.71 835 24.66 12.5 54.5 27 -5.8 21.6
16:35 1006 29.71 835 24.66 12.7 54.8 28 -5.5 22.2
16:40 1006 29.71 835 24.66 12.6 54.7 28 -5.5 22.1
16:45 1006 29.71 835 24.66 12.5 54.5 27 -6 21.2
16:50 1006 29.71 835 24.66 12.5 54.6 28 -5.5 22
16:55 1006 29.71 835 24.66 12.3 54.2 29 -5.3 22.4
17:00 1006 29.71 835 24.66 12.1 53.9 29 -5.4 22.2
17:05 1006 29.71 835 24.66 12 53.5 29 -5.4 22.2
17:10 1006 29.71 835 24.66 11.9 53.5 30 -5.2 22.6
17:15 1006 29.71 835 24.66 11.7 53.1 30 -5.4 22.3
17:20 1006 29.71 835 24.66 11.7 53 30 -5.3 22.4
17:25 1006 29.71 835 24.66 11.5 52.6 30 -5.4 22.3
17:30 1006 29.71 835 24.66 11.4 52.6 30 -5.3 22.4
17:35 1006 29.71 835 24.66 11.4 52.6 30 -5.5 22
17:40 1006 29.71 835 24.66 11.5 52.6 30 -5.6 21.9
17:45 1005 29.68 835 24.66 11.7 53 29 -5.5 22
17:50 1005 29.68 835 24.66 11.6 53 29 -5.5 22
17:55 1005 29.68 835 24.66 11.8 53.2 29 -5.4 22.2
18:00 1005 29.68 835 24.66 11.6 52.9 30 -5.3 22.5
18:05 1005 29.68 835 24.66 11.6 52.8 30 -5.4 22.3
18:10 1006 29.71 835 24.66 11.5 52.7 31 -5.2 22.7
18:15 1006 29.71 835 24.66 11.4 52.6 31 -5.3 22.5
18:20 1006 29.71 835 24.66 11.5 52.7 31 -5 22.9
18:25 1006 29.71 835 24.66 11.5 52.7 31 -4.9 23.2
18:30 1006 29.71 835 24.66 11.3 52.3 32 -4.7 23.5
18:35 1006 29.71 835 24.66 11.2 52.1 32 -4.7 23.5
18:40 1006 29.71 835 24.66 11.1 52 33 -4.5 23.9
18:45 1006 29.71 835 24.66 11 51.7 33 -4.5 24
18:50 1006 29.71 835 24.66 10.8 51.5 35 -4 24.7
18:55 1006 29.71 835 24.66 10.6 51 35 -4.3 24.3
19:00 1006 29.71 835 24.66 10.6 51.1 34 -4.6 23.8
19:05 1006 29.71 835 24.66 10.7 51.3 34 -4.3 24.3
19:10 1006 29.71 835 24.66 10.7 51.2 37 -3.5 25.7
19:15 1006 29.71 835 24.66 10.6 51 42 -1.8 28.8
19:20 1006 29.71 835 24.66 10.1 50.2 45 -1.1 29.9
19:25 1006 29.71 835 24.66 9.7 49.5 47 -0.9 30.4
19:30 1006 29.71 835 24.66 9.4 48.9 49 -0.7 30.7
19:35 1006 29.71 835 24.66 9.1 48.4 51 -0.5 31.1
19:40 1006 29.71 835 24.66 9 48.1 51 -0.5 31
19:45 1006 29.71 835 24.66 8.9 48.1 51 -0.5 31.1
19:50 1006 29.71 835 24.66 9 48.1 52 -0.5 31.2
19:55 1006 29.71 835 24.66 8.9 48.1 53 -0 31.9
20:00 1006 29.71 835 24.66 8.6 47.6 57 0.6 33.1
20:05 1006 29.71 835 24.66 8.4 47.1 60 1.1 34.1
20:10 1006 29.71 835 24.66 8 46.4 66 2.1 35.8
20:15 1006 29.71 835 24.66 7.6 45.6 68 2 35.5
20:20 1006 29.71 835 24.66 7.5 45.4 66 1.5 34.7
20:25 1007 29.74 836 24.69 7.5 45.4 66 1.7 35
20:30 1007 29.74 836 24.69 5.7 42.2 76 1.8 35.3
20:35 1007 29.74 836 24.69 3.7 38.6 85 1.3 34.4
20:40 1007 29.74 836 24.69 2.9 37.2 87 1 33.7
20:45 1007 29.74 836 24.69 2.8 37 87 0.8 33.5
20:50 1007 29.74 836 24.69 2.6 36.8 88 0.9 33.6
20:55 1007 29.74 836 24.69 2.6 36.6 88 0.8 33.4
21:00 1007 29.74 836 24.69 2.4 36.3 89 0.8 33.4
21:05 1007 29.74 836 24.69 2.4 36.3 89 0.8 33.4
21:10 1007 29.74 837 24.72 2.1 35.7 90 0.7 33.2
21:15 1007 29.74 837 24.72 1.8 35.2 91 0.4 32.8
21:20 1008 29.77 837 24.72 1.5 34.8 92 0.3 32.6
21:25 1008 29.77 837 24.72 1.4 34.6 92 0.2 32.4
21:30 1008 29.77 837 24.72 1.3 34.3 92 0.1 32.1
21:35 1008 29.77 837 24.72 1 33.9 92 -0.1 31.7
21:40 1008 29.77 838 24.75 0.8 33.4 92 -0.3 31.4
21:45 1008 29.77 838 24.75 0.4 32.7 94 -0.5 31.1
21:50 1008 29.77 837 24.72 0.1 32.2 95 -0.6 30.9
21:55 1008 29.77 837 24.72 0.1 32.2 95 -0.6 31
22:00 1008 29.77 837 24.72 0.1 32.2 95 -0.5 31
22:05 1008 29.77 837 24.72 0.1 32.2 96 -0.5 31.1
22:10 1008 29.77 837 24.72 0.1 32.1 96 -0.5 31
22:15 1008 29.77 837 24.72 0 32.1 96 -0.5 31.1
22:20 1008 29.77 838 24.75 0.1 32.1 96 -0.5 31.1
22:25 1008 29.77 838 24.75 0.2 32.3 96 -0.4 31.3
22:30 1008 29.77 837 24.72 0.4 32.7 96 -0.1 31.8
22:35 1008 29.77 837 24.72 0.8 33.5 96 0.3 32.5
22:40 1008 29.77 837 24.72 0.9 33.5 96 0.3 32.5
22:45 1008 29.77 837 24.72 0.8 33.5 95 0.1 32.2
22:50 1008 29.77 837 24.72 0.7 33.3 95 0.1 32.1
22:55 1008 29.77 837 24.72 0.7 33.3 95 -0 32
23:00 1008 29.77 837 24.72 0.8 33.5 95 0.1 32.1
23:05 1008 29.77 837 24.72 1.1 34 93 0.1 32.2
23:10 1008 29.77 837 24.72 1.4 34.5 92 0.1 32.2
23:15 1008 29.77 837 24.72 1.5 34.6 91 0.1 32.2
23:20 1008 29.77 837 24.72 1.5 34.8 90 0.1 32.2
23:25 1008 29.77 837 24.72 1.6 34.8 90 0.1 32.2
23:30 1008 29.77 837 24.72 1.6 34.9 90 0.1 32.2
23:35 1008 29.77 837 24.72 1.7 35 89 0 32
23:40 1008 29.77 837 24.72 1.6 34.9 90 0.1 32.2
23:45 1008 29.77 837 24.72 1.6 34.9 90 0.2 32.3
23:50 1008 29.77 837 24.72 1.6 34.9 91 0.3 32.5
23:55 1008 29.77 837 24.72 1.4 34.4 91 0 32
24:00 1008 29.77 837 24.72 0.9 33.6 93 -0.1 31.7